CYDFCYJT

Guest
Details From CYDF - Deer Lake
To CYJT - Stephenville
Flight Number -
Tags Generated
Created
Modified
Stats Distance 61 nm / 113 km
Max Altitude 0 ft / 0 m
Waypoints 2
Social Downloads 1
Likes 0
Share VATSIM

Download

Looking for another format? Having issues loading an existing format? Contact us
Advertisement - Login to hide

Notes

Generated

Route

CYDF CYJT

ID Type Via Altitude Latitude Longitude Leg Dist Tot Dist Heading (true) Name
O CYDF APT - 0 ft / 0 m 49.20533˚ -57.40033˚ - 0 nm - -
O CYJT APT - 0 ft / 0 m 48.53389˚ -58.55250˚ 60 nm 60 nm 229° / 228° -

Altitude Profile

Advertisement - Login to hide

CYDF

Details ICAO CYDF (YDF)
Name DEER LAKE
Region Canada
Timezone America/St_Johns (UTC-2.5)
Stats Elevation 72 ft / 22 m (AMSL)
Location 49.211000° -57.391246°
Runways 1
Magnetic Variation 19.052° W

METAR

CYDF 252000Z 09008KT 15SM -RA OVC027 04/01 A2967 RMK SC8 SLP050

Decode

TAF

TAF CYDF 251938Z 2520/2608 13010G20KT P6SM -RA SCT015 OVC040 TEMPO 2520/2602 4SM -RA BR BKN015 OVC040 BECMG 2600/2602 06005KT FM260200 06005KT 6SM -RA BR OVC015 TEMPO 2602/2606 4SM -RA BR BKN008 OVC015 FM260600 06005KT 4SM -RA BR OVC008 RMK NXT FCST BY 260200Z

Decode

Departure Runways

ID Width Length Bearing (true) Bearing (mag) Surface Threshold Offset Overrun Length
07 151 ft / 46 m 5,989 ft / 1,825 m 46.32° 65.37° Asphalt 0 ft / 0 m 0 ft / 0 m
25 151 ft / 46 m 5,989 ft / 1,825 m 226.34° 245.39° Asphalt 0 ft / 0 m 0 ft / 0 m

CYJT

Details ICAO CYJT (YJT)
Name STEPHENVILLE
Region Canada
Timezone America/St_Johns (UTC-2.5)
Stats Elevation 80 ft / 24 m (AMSL)
Location 48.541811° -58.551488°
Runways 2
Magnetic Variation 18.845° W

METAR

CYJT 252000Z 09012KT 15SM SCT015 OVC025 06/04 A2959 RMK CF3SC5 SLP023

Decode

TAF

TAF AMD CYJT 251818Z 2518/2618 09012G22KT P6SM OVC025 TEMPO 2518/2521 3SM -RA BR SCT008 OVC010 FM252200 10008KT P6SM -RA OVC012 FM260400 06008KT 6SM -DZ BR FEW006 OVC010 BECMG 2610/2612 VRB03KT FM261400 25010KT P6SM -SHRA BKN020 RMK NXT FCST BY 260000Z

Decode

Destination Runways

ID Width Length Bearing (true) Bearing (mag) Surface Threshold Offset Overrun Length
02 150 ft / 46 m 3,770 ft / 1,149 m 355.50° 14.35° Asphalt 0 ft / 0 m 0 ft / 0 m
09 200 ft / 61 m 9,970 ft / 3,039 m 71.61° 90.46° Asphalt 0 ft / 0 m 1,000 ft / 305 m
20 150 ft / 46 m 3,770 ft / 1,149 m 175.50° 194.35° Asphalt 0 ft / 0 m 0 ft / 0 m
27 200 ft / 61 m 9,970 ft / 3,039 m 251.64° 270.49° Asphalt 0 ft / 0 m 1,000 ft / 305 m

Popular Alternatives